sensor_id;sensor_type;location;lat;lon;timestamp;P1;durP1;ratioP1;P2;durP2;ratioP2
23565;SDS011;22140;48.988;8.544;2023-09-18T00:01:46;7.60;;;2.97;;
23565;SDS011;22140;48.988;8.544;2023-09-18T00:06:47;8.02;;;2.63;;
23565;SDS011;22140;48.988;8.544;2023-09-18T00:11:49;8.32;;;2.78;;
23565;SDS011;22140;48.988;8.544;2023-09-18T00:16:50;7.50;;;2.93;;
23565;SDS011;22140;48.988;8.544;2023-09-18T00:21:59;9.83;;;2.73;;
23565;SDS011;22140;48.988;8.544;2023-09-18T00:27:01;9.20;;;2.70;;
23565;SDS011;22140;48.988;8.544;2023-09-18T00:32:03;7.70;;;2.63;;
23565;SDS011;22140;48.988;8.544;2023-09-18T00:37:04;8.03;;;3.00;;
23565;SDS011;22140;48.988;8.544;2023-09-18T00:42:06;7.85;;;2.50;;
23565;SDS011;22140;48.988;8.544;2023-09-18T00:47:07;8.25;;;3.10;;
23565;SDS011;22140;48.988;8.544;2023-09-18T00:52:09;7.83;;;2.93;;
23565;SDS011;22140;48.988;8.544;2023-09-18T00:57:11;7.57;;;2.38;;
23565;SDS011;22140;48.988;8.544;2023-09-18T01:02:13;9.68;;;2.55;;
23565;SDS011;22140;48.988;8.544;2023-09-18T01:07:15;7.80;;;2.43;;
23565;SDS011;22140;48.988;8.544;2023-09-18T01:17:30;10.68;;;2.90;;
23565;SDS011;22140;48.988;8.544;2023-09-18T01:22:32;6.97;;;2.50;;
23565;SDS011;22140;48.988;8.544;2023-09-18T01:27:33;9.93;;;2.40;;
23565;SDS011;22140;48.988;8.544;2023-09-18T01:32:35;8.60;;;2.70;;
23565;SDS011;22140;48.988;8.544;2023-09-18T01:37:38;9.00;;;2.90;;
23565;SDS011;22140;48.988;8.544;2023-09-18T01:42:40;8.30;;;3.00;;
23565;SDS011;22140;48.988;8.544;2023-09-18T01:47:42;7.05;;;2.42;;
23565;SDS011;22140;48.988;8.544;2023-09-18T01:52:44;8.13;;;2.40;;
23565;SDS011;22140;48.988;8.544;2023-09-18T01:57:45;7.47;;;2.30;;
23565;SDS011;22140;48.988;8.544;2023-09-18T02:02:47;7.90;;;3.10;;
23565;SDS011;22140;48.988;8.544;2023-09-18T02:08:07;6.32;;;2.47;;
23565;SDS011;22140;48.988;8.544;2023-09-18T02:13:08;9.43;;;2.78;;
23565;SDS011;22140;48.988;8.544;2023-09-18T02:18:09;8.97;;;2.70;;
23565;SDS011;22140;48.988;8.544;2023-09-18T02:23:11;8.93;;;2.80;;
23565;SDS011;22140;48.988;8.544;2023-09-18T02:28:12;9.52;;;2.67;;
23565;SDS011;22140;48.988;8.544;2023-09-18T02:33:14;7.17;;;2.60;;
23565;SDS011;22140;48.988;8.544;2023-09-18T02:38:16;7.20;;;3.08;;
23565;SDS011;22140;48.988;8.544;2023-09-18T02:43:17;8.02;;;2.63;;
23565;SDS011;22140;48.988;8.544;2023-09-18T02:48:18;9.73;;;2.87;;
23565;SDS011;22140;48.988;8.544;2023-09-18T02:53:20;8.53;;;2.93;;
23565;SDS011;22140;48.988;8.544;2023-09-18T02:58:22;7.45;;;3.00;;
23565;SDS011;22140;48.988;8.544;2023-09-18T03:03:29;8.52;;;2.70;;
23565;SDS011;22140;48.988;8.544;2023-09-18T03:08:30;9.50;;;3.00;;
23565;SDS011;22140;48.988;8.544;2023-09-18T03:13:32;8.55;;;2.50;;
23565;SDS011;22140;48.988;8.544;2023-09-18T03:18:33;10.70;;;2.78;;
23565;SDS011;22140;48.988;8.544;2023-09-18T03:23:35;8.60;;;2.93;;
23565;SDS011;22140;48.988;8.544;2023-09-18T03:28:36;10.13;;;2.88;;
23565;SDS011;22140;48.988;8.544;2023-09-18T03:33:37;14.18;;;3.17;;
23565;SDS011;22140;48.988;8.544;2023-09-18T03:38:39;11.27;;;2.90;;
23565;SDS011;22140;48.988;8.544;2023-09-18T03:43:40;14.47;;;3.23;;
23565;SDS011;22140;48.988;8.544;2023-09-18T03:48:41;14.27;;;3.58;;
23565;SDS011;22140;48.988;8.544;2023-09-18T03:53:43;17.67;;;3.28;;
23565;SDS011;22140;48.988;8.544;2023-09-18T03:58:44;17.80;;;3.00;;
23565;SDS011;22140;48.988;8.544;2023-09-18T04:03:50;13.93;;;3.13;;
23565;SDS011;22140;48.988;8.544;2023-09-18T04:08:52;16.02;;;3.28;;
23565;SDS011;22140;48.988;8.544;2023-09-18T04:13:53;14.80;;;3.70;;
23565;SDS011;22140;48.988;8.544;2023-09-18T04:18:55;15.07;;;3.15;;
23565;SDS011;22140;48.988;8.544;2023-09-18T04:23:56;10.48;;;3.25;;
23565;SDS011;22140;48.988;8.544;2023-09-18T04:29:00;10.27;;;3.00;;
23565;SDS011;22140;48.988;8.544;2023-09-18T04:34:02;13.03;;;3.10;;
23565;SDS011;22140;48.988;8.544;2023-09-18T04:39:04;11.75;;;3.78;;
23565;SDS011;22140;48.988;8.544;2023-09-18T04:44:06;12.95;;;3.10;;
23565;SDS011;22140;48.988;8.544;2023-09-18T04:49:08;15.90;;;3.47;;
23565;SDS011;22140;48.988;8.544;2023-09-18T04:54:12;13.95;;;3.30;;
23565;SDS011;22140;48.988;8.544;2023-09-18T04:59:13;13.77;;;2.92;;
23565;SDS011;22140;48.988;8.544;2023-09-18T05:04:15;9.37;;;3.40;;
23565;SDS011;22140;48.988;8.544;2023-09-18T05:09:17;10.18;;;3.03;;
23565;SDS011;22140;48.988;8.544;2023-09-18T05:14:18;10.02;;;2.97;;
23565;SDS011;22140;48.988;8.544;2023-09-18T05:19:20;11.77;;;2.70;;
23565;SDS011;22140;48.988;8.544;2023-09-18T05:24:21;13.47;;;3.67;;
23565;SDS011;22140;48.988;8.544;2023-09-18T05:29:28;15.10;;;3.33;;
23565;SDS011;22140;48.988;8.544;2023-09-18T05:34:29;13.38;;;3.22;;
23565;SDS011;22140;48.988;8.544;2023-09-18T05:39:30;14.50;;;3.07;;
23565;SDS011;22140;48.988;8.544;2023-09-18T05:44:32;11.30;;;3.05;;
23565;SDS011;22140;48.988;8.544;2023-09-18T05:49:34;13.85;;;3.20;;
23565;SDS011;22140;48.988;8.544;2023-09-18T05:54:36;13.63;;;3.40;;
23565;SDS011;22140;48.988;8.544;2023-09-18T05:59:38;12.43;;;3.10;;
23565;SDS011;22140;48.988;8.544;2023-09-18T06:04:41;12.60;;;2.95;;
23565;SDS011;22140;48.988;8.544;2023-09-18T06:09:42;10.33;;;2.77;;
23565;SDS011;22140;48.988;8.544;2023-09-18T06:14:44;14.33;;;3.30;;
23565;SDS011;22140;48.988;8.544;2023-09-18T06:19:46;12.68;;;3.08;;
23565;SDS011;22140;48.988;8.544;2023-09-18T06:24:47;16.13;;;3.10;;
23565;SDS011;22140;48.988;8.544;2023-09-18T06:29:49;7.77;;;2.27;;
23565;SDS011;22140;48.988;8.544;2023-09-18T06:34:50;12.23;;;2.70;;
23565;SDS011;22140;48.988;8.544;2023-09-18T06:39:51;15.23;;;2.85;;
23565;SDS011;22140;48.988;8.544;2023-09-18T06:44:53;13.07;;;3.20;;
23565;SDS011;22140;48.988;8.544;2023-09-18T06:49:54;11.95;;;2.42;;
23565;SDS011;22140;48.988;8.544;2023-09-18T06:54:55;10.02;;;2.80;;
23565;SDS011;22140;48.988;8.544;2023-09-18T06:59:59;10.97;;;3.20;;
23565;SDS011;22140;48.988;8.544;2023-09-18T07:05:00;12.57;;;2.67;;
23565;SDS011;22140;48.988;8.544;2023-09-18T07:10:02;9.43;;;2.65;;
23565;SDS011;22140;48.988;8.544;2023-09-18T07:15:06;9.68;;;2.50;;
23565;SDS011;22140;48.988;8.544;2023-09-18T07:20:07;8.37;;;2.20;;
23565;SDS011;22140;48.988;8.544;2023-09-18T07:25:15;10.07;;;2.33;;
23565;SDS011;22140;48.988;8.544;2023-09-18T07:30:16;14.10;;;2.45;;
23565;SDS011;22140;48.988;8.544;2023-09-18T07:35:18;11.67;;;2.33;;
23565;SDS011;22140;48.988;8.544;2023-09-18T07:40:21;8.65;;;2.20;;
23565;SDS011;22140;48.988;8.544;2023-09-18T07:45:23;9.63;;;2.15;;
23565;SDS011;22140;48.988;8.544;2023-09-18T07:50:25;9.70;;;2.40;;
23565;SDS011;22140;48.988;8.544;2023-09-18T07:55:26;6.93;;;2.20;;
23565;SDS011;22140;48.988;8.544;2023-09-18T08:00:28;7.47;;;2.00;;
23565;SDS011;22140;48.988;8.544;2023-09-18T08:05:29;9.02;;;2.17;;
23565;SDS011;22140;48.988;8.544;2023-09-18T08:10:36;7.00;;;1.60;;
23565;SDS011;22140;48.988;8.544;2023-09-18T08:15:37;8.93;;;1.80;;
23565;SDS011;22140;48.988;8.544;2023-09-18T08:20:42;7.15;;;1.70;;
23565;SDS011;22140;48.988;8.544;2023-09-18T08:25:44;8.30;;;1.80;;
23565;SDS011;22140;48.988;8.544;2023-09-18T08:30:45;10.20;;;1.80;;
23565;SDS011;22140;48.988;8.544;2023-09-18T08:35:48;8.82;;;1.80;;
23565;SDS011;22140;48.988;8.544;2023-09-18T08:40:53;8.00;;;2.00;;
23565;SDS011;22140;48.988;8.544;2023-09-18T08:45:56;7.83;;;1.77;;
23565;SDS011;22140;48.988;8.544;2023-09-18T08:51:03;7.05;;;2.00;;
23565;SDS011;22140;48.988;8.544;2023-09-18T08:56:05;6.68;;;1.80;;
23565;SDS011;22140;48.988;8.544;2023-09-18T09:01:07;5.00;;;1.23;;
23565;SDS011;22140;48.988;8.544;2023-09-18T09:06:11;7.28;;;1.92;;
23565;SDS011;22140;48.988;8.544;2023-09-18T09:11:13;5.78;;;1.30;;
23565;SDS011;22140;48.988;8.544;2023-09-18T09:16:14;7.53;;;1.80;;
23565;SDS011;22140;48.988;8.544;2023-09-18T09:21:18;8.18;;;1.42;;
23565;SDS011;22140;48.988;8.544;2023-09-18T09:26:21;6.57;;;1.45;;
23565;SDS011;22140;48.988;8.544;2023-09-18T09:31:26;7.57;;;1.30;;
23565;SDS011;22140;48.988;8.544;2023-09-18T09:36:29;9.20;;;1.53;;
23565;SDS011;22140;48.988;8.544;2023-09-18T09:41:31;9.95;;;1.70;;
23565;SDS011;22140;48.988;8.544;2023-09-18T09:46:32;7.60;;;2.00;;
23565;SDS011;22140;48.988;8.544;2023-09-18T09:51:34;10.37;;;1.87;;
23565;SDS011;22140;48.988;8.544;2023-09-18T09:56:42;5.75;;;1.42;;
23565;SDS011;22140;48.988;8.544;2023-09-18T10:01:48;6.18;;;1.20;;
23565;SDS011;22140;48.988;8.544;2023-09-18T10:06:52;6.67;;;1.40;;
23565;SDS011;22140;48.988;8.544;2023-09-18T10:11:57;5.78;;;1.50;;
23565;SDS011;22140;48.988;8.544;2023-09-18T10:17:07;7.55;;;1.75;;
23565;SDS011;22140;48.988;8.544;2023-09-18T10:22:18;8.97;;;1.50;;
23565;SDS011;22140;48.988;8.544;2023-09-18T10:27:23;7.47;;;2.05;;
23565;SDS011;22140;48.988;8.544;2023-09-18T10:32:27;7.82;;;1.88;;
23565;SDS011;22140;48.988;8.544;2023-09-18T10:37:29;7.13;;;1.50;;
23565;SDS011;22140;48.988;8.544;2023-09-18T10:42:31;21.10;;;2.67;;
23565;SDS011;22140;48.988;8.544;2023-09-18T10:47:35;8.02;;;2.00;;
23565;SDS011;22140;48.988;8.544;2023-09-18T10:52:43;6.65;;;1.60;;
23565;SDS011;22140;48.988;8.544;2023-09-18T10:57:58;15.23;;;2.00;;
23565;SDS011;22140;48.988;8.544;2023-09-18T11:03:13;8.30;;;1.63;;
23565;SDS011;22140;48.988;8.544;2023-09-18T11:08:28;7.13;;;1.60;;
23565;SDS011;22140;48.988;8.544;2023-09-18T11:13:31;7.43;;;1.50;;
23565;SDS011;22140;48.988;8.544;2023-09-18T11:18:32;7.95;;;1.58;;
23565;SDS011;22140;48.988;8.544;2023-09-18T11:23:35;10.90;;;1.67;;
23565;SDS011;22140;48.988;8.544;2023-09-18T11:28:38;11.77;;;1.50;;
23565;SDS011;22140;48.988;8.544;2023-09-18T11:33:40;16.27;;;2.10;;
23565;SDS011;22140;48.988;8.544;2023-09-18T11:38:54;9.70;;;1.50;;
23565;SDS011;22140;48.988;8.544;2023-09-18T11:49:07;8.53;;;1.50;;
23565;SDS011;22140;48.988;8.544;2023-09-18T11:54:11;6.65;;;1.40;;
23565;SDS011;22140;48.988;8.544;2023-09-18T11:59:12;7.03;;;1.45;;
23565;SDS011;22140;48.988;8.544;2023-09-18T12:04:14;8.60;;;1.47;;
23565;SDS011;22140;48.988;8.544;2023-09-18T12:09:15;4.75;;;1.30;;
23565;SDS011;22140;48.988;8.544;2023-09-18T12:14:18;34.80;;;2.70;;
23565;SDS011;22140;48.988;8.544;2023-09-18T12:19:20;8.73;;;1.40;;
23565;SDS011;22140;48.988;8.544;2023-09-18T12:24:22;4.97;;;1.10;;
23565;SDS011;22140;48.988;8.544;2023-09-18T12:29:24;32.60;;;2.50;;
23565;SDS011;22140;48.988;8.544;2023-09-18T12:34:25;10.10;;;1.50;;
23565;SDS011;22140;48.988;8.544;2023-09-18T12:39:31;9.00;;;1.63;;
23565;SDS011;22140;48.988;8.544;2023-09-18T12:44:32;6.68;;;1.38;;
23565;SDS011;22140;48.988;8.544;2023-09-18T12:49:34;18.90;;;2.00;;
23565;SDS011;22140;48.988;8.544;2023-09-18T12:59:43;10.60;;;1.60;;
23565;SDS011;22140;48.988;8.544;2023-09-18T13:04:51;6.05;;;1.13;;
23565;SDS011;22140;48.988;8.544;2023-09-18T13:09:59;11.07;;;1.60;;
23565;SDS011;22140;48.988;8.544;2023-09-18T13:15:02;12.23;;;1.67;;
23565;SDS011;22140;48.988;8.544;2023-09-18T13:20:18;8.43;;;1.40;;
23565;SDS011;22140;48.988;8.544;2023-09-18T13:25:25;7.97;;;1.30;;
23565;SDS011;22140;48.988;8.544;2023-09-18T13:30:27;12.43;;;2.00;;
23565;SDS011;22140;48.988;8.544;2023-09-18T13:35:28;7.80;;;1.40;;
23565;SDS011;22140;48.988;8.544;2023-09-18T13:40:30;6.43;;;1.45;;
23565;SDS011;22140;48.988;8.544;2023-09-18T13:45:31;9.03;;;1.43;;
23565;SDS011;22140;48.988;8.544;2023-09-18T13:50:33;11.18;;;1.50;;
23565;SDS011;22140;48.988;8.544;2023-09-18T13:55:35;14.82;;;1.73;;
23565;SDS011;22140;48.988;8.544;2023-09-18T14:00:36;12.30;;;1.50;;
23565;SDS011;22140;48.988;8.544;2023-09-18T14:05:38;11.00;;;1.57;;
23565;SDS011;22140;48.988;8.544;2023-09-18T14:10:39;22.83;;;2.67;;
23565;SDS011;22140;48.988;8.544;2023-09-18T14:15:41;7.20;;;1.60;;
23565;SDS011;22140;48.988;8.544;2023-09-18T14:20:42;11.43;;;1.57;;
23565;SDS011;22140;48.988;8.544;2023-09-18T14:25:44;8.98;;;1.63;;
23565;SDS011;22140;48.988;8.544;2023-09-18T14:30:45;11.10;;;1.77;;
23565;SDS011;22140;48.988;8.544;2023-09-18T14:35:46;8.87;;;1.50;;
23565;SDS011;22140;48.988;8.544;2023-09-18T14:40:48;6.10;;;1.50;;
23565;SDS011;22140;48.988;8.544;2023-09-18T14:45:49;6.65;;;1.80;;
23565;SDS011;22140;48.988;8.544;2023-09-18T14:50:56;7.10;;;1.40;;
23565;SDS011;22140;48.988;8.544;2023-09-18T14:55:58;8.87;;;1.80;;
23565;SDS011;22140;48.988;8.544;2023-09-18T15:00:59;9.40;;;1.88;;
23565;SDS011;22140;48.988;8.544;2023-09-18T15:06:01;7.80;;;1.80;;
23565;SDS011;22140;48.988;8.544;2023-09-18T15:11:03;5.23;;;1.30;;
23565;SDS011;22140;48.988;8.544;2023-09-18T15:16:07;6.68;;;1.58;;
23565;SDS011;22140;48.988;8.544;2023-09-18T15:21:08;13.73;;;1.90;;
23565;SDS011;22140;48.988;8.544;2023-09-18T15:26:11;6.90;;;1.60;;
23565;SDS011;22140;48.988;8.544;2023-09-18T15:31:12;8.82;;;1.52;;
23565;SDS011;22140;48.988;8.544;2023-09-18T15:36:14;5.72;;;1.48;;
23565;SDS011;22140;48.988;8.544;2023-09-18T15:41:15;8.27;;;1.73;;
23565;SDS011;22140;48.988;8.544;2023-09-18T15:46:17;11.20;;;1.50;;
23565;SDS011;22140;48.988;8.544;2023-09-18T15:51:21;7.65;;;1.50;;
23565;SDS011;22140;48.988;8.544;2023-09-18T15:56:22;5.85;;;1.48;;
23565;SDS011;22140;48.988;8.544;2023-09-18T16:01:24;5.90;;;1.47;;
23565;SDS011;22140;48.988;8.544;2023-09-18T16:06:25;9.65;;;2.28;;
23565;SDS011;22140;48.988;8.544;2023-09-18T16:11:27;6.55;;;1.63;;
23565;SDS011;22140;48.988;8.544;2023-09-18T16:16:29;8.57;;;1.53;;
23565;SDS011;22140;48.988;8.544;2023-09-18T16:21:30;6.03;;;1.35;;
23565;SDS011;22140;48.988;8.544;2023-09-18T16:26:33;7.18;;;1.50;;
23565;SDS011;22140;48.988;8.544;2023-09-18T16:31:34;7.80;;;1.60;;
23565;SDS011;22140;48.988;8.544;2023-09-18T16:36:36;7.17;;;1.60;;
23565;SDS011;22140;48.988;8.544;2023-09-18T16:41:37;8.88;;;1.60;;
23565;SDS011;22140;48.988;8.544;2023-09-18T16:46:38;6.70;;;1.67;;
23565;SDS011;22140;48.988;8.544;2023-09-18T16:51:41;10.57;;;1.90;;
23565;SDS011;22140;48.988;8.544;2023-09-18T16:56:43;9.77;;;1.80;;
23565;SDS011;22140;48.988;8.544;2023-09-18T17:01:44;9.20;;;1.92;;
23565;SDS011;22140;48.988;8.544;2023-09-18T17:06:46;17.70;;;1.97;;
23565;SDS011;22140;48.988;8.544;2023-09-18T17:11:47;7.07;;;1.70;;
23565;SDS011;22140;48.988;8.544;2023-09-18T17:16:49;5.93;;;1.80;;
23565;SDS011;22140;48.988;8.544;2023-09-18T17:21:51;9.93;;;2.27;;
23565;SDS011;22140;48.988;8.544;2023-09-18T17:26:52;7.33;;;1.70;;
23565;SDS011;22140;48.988;8.544;2023-09-18T17:31:54;11.10;;;2.20;;
23565;SDS011;22140;48.988;8.544;2023-09-18T17:36:55;7.03;;;1.48;;
23565;SDS011;22140;48.988;8.544;2023-09-18T17:41:57;7.40;;;1.53;;
23565;SDS011;22140;48.988;8.544;2023-09-18T17:46:59;5.13;;;1.10;;
23565;SDS011;22140;48.988;8.544;2023-09-18T17:52:01;6.30;;;1.40;;
23565;SDS011;22140;48.988;8.544;2023-09-18T17:57:07;6.80;;;1.20;;
23565;SDS011;22140;48.988;8.544;2023-09-18T18:02:08;7.57;;;1.40;;
23565;SDS011;22140;48.988;8.544;2023-09-18T18:07:10;7.05;;;1.33;;
23565;SDS011;22140;48.988;8.544;2023-09-18T18:12:11;7.07;;;1.27;;
23565;SDS011;22140;48.988;8.544;2023-09-18T18:17:13;6.47;;;1.10;;
23565;SDS011;22140;48.988;8.544;2023-09-18T18:22:14;6.38;;;1.10;;
23565;SDS011;22140;48.988;8.544;2023-09-18T18:27:16;5.63;;;0.95;;
23565;SDS011;22140;48.988;8.544;2023-09-18T18:32:18;4.87;;;0.90;;
23565;SDS011;22140;48.988;8.544;2023-09-18T18:37:19;8.00;;;1.20;;
23565;SDS011;22140;48.988;8.544;2023-09-18T18:42:21;5.18;;;1.20;;
23565;SDS011;22140;48.988;8.544;2023-09-18T18:47:22;3.93;;;1.00;;
23565;SDS011;22140;48.988;8.544;2023-09-18T18:52:24;4.90;;;1.10;;
23565;SDS011;22140;48.988;8.544;2023-09-18T18:57:25;5.32;;;1.00;;
23565;SDS011;22140;48.988;8.544;2023-09-18T19:02:26;5.30;;;1.13;;
23565;SDS011;22140;48.988;8.544;2023-09-18T19:07:28;5.03;;;1.23;;
23565;SDS011;22140;48.988;8.544;2023-09-18T19:12:30;4.78;;;1.10;;
23565;SDS011;22140;48.988;8.544;2023-09-18T19:17:42;5.13;;;1.30;;
23565;SDS011;22140;48.988;8.544;2023-09-18T19:22:44;7.77;;;1.67;;
23565;SDS011;22140;48.988;8.544;2023-09-18T19:27:45;5.43;;;1.15;;
23565;SDS011;22140;48.988;8.544;2023-09-18T19:32:46;5.35;;;1.00;;
23565;SDS011;22140;48.988;8.544;2023-09-18T19:37:48;6.03;;;1.20;;
23565;SDS011;22140;48.988;8.544;2023-09-18T19:42:49;5.53;;;1.20;;
23565;SDS011;22140;48.988;8.544;2023-09-18T19:47:50;5.07;;;1.20;;
23565;SDS011;22140;48.988;8.544;2023-09-18T19:52:53;4.93;;;1.10;;
23565;SDS011;22140;48.988;8.544;2023-09-18T19:57:54;6.53;;;1.30;;
23565;SDS011;22140;48.988;8.544;2023-09-18T20:02:56;5.38;;;1.35;;
23565;SDS011;22140;48.988;8.544;2023-09-18T20:07:57;5.32;;;1.17;;
23565;SDS011;22140;48.988;8.544;2023-09-18T20:12:59;4.70;;;1.27;;
23565;SDS011;22140;48.988;8.544;2023-09-18T20:18:04;4.78;;;1.10;;
23565;SDS011;22140;48.988;8.544;2023-09-18T20:23:06;6.47;;;1.20;;
23565;SDS011;22140;48.988;8.544;2023-09-18T20:28:07;4.40;;;1.00;;
23565;SDS011;22140;48.988;8.544;2023-09-18T20:33:09;6.13;;;1.65;;
23565;SDS011;22140;48.988;8.544;2023-09-18T20:38:11;5.13;;;1.00;;
23565;SDS011;22140;48.988;8.544;2023-09-18T20:43:15;5.83;;;1.10;;
23565;SDS011;22140;48.988;8.544;2023-09-18T20:48:16;5.72;;;1.15;;
23565;SDS011;22140;48.988;8.544;2023-09-18T20:53:18;6.00;;;1.30;;
23565;SDS011;22140;48.988;8.544;2023-09-18T20:58:19;6.63;;;1.20;;
23565;SDS011;22140;48.988;8.544;2023-09-18T21:03:21;6.07;;;1.20;;
23565;SDS011;22140;48.988;8.544;2023-09-18T21:08:22;4.95;;;1.35;;
23565;SDS011;22140;48.988;8.544;2023-09-18T21:13:24;7.03;;;1.67;;
23565;SDS011;22140;48.988;8.544;2023-09-18T21:18:25;7.40;;;1.20;;
23565;SDS011;22140;48.988;8.544;2023-09-18T21:23:27;7.15;;;1.20;;
23565;SDS011;22140;48.988;8.544;2023-09-18T21:28:28;4.95;;;1.27;;
23565;SDS011;22140;48.988;8.544;2023-09-18T21:33:30;6.17;;;1.10;;
23565;SDS011;22140;48.988;8.544;2023-09-18T21:38:31;4.15;;;1.00;;
23565;SDS011;22140;48.988;8.544;2023-09-18T21:43:32;7.10;;;1.38;;
23565;SDS011;22140;48.988;8.544;2023-09-18T21:48:34;5.00;;;1.00;;
23565;SDS011;22140;48.988;8.544;2023-09-18T21:53:35;3.72;;;1.00;;
23565;SDS011;22140;48.988;8.544;2023-09-18T21:58:40;4.68;;;0.88;;
23565;SDS011;22140;48.988;8.544;2023-09-18T22:03:42;3.83;;;0.90;;
23565;SDS011;22140;48.988;8.544;2023-09-18T22:08:45;8.63;;;1.13;;
23565;SDS011;22140;48.988;8.544;2023-09-18T22:13:47;4.70;;;0.90;;
23565;SDS011;22140;48.988;8.544;2023-09-18T22:18:48;4.03;;;0.90;;
23565;SDS011;22140;48.988;8.544;2023-09-18T22:23:50;4.97;;;1.03;;
23565;SDS011;22140;48.988;8.544;2023-09-18T22:28:52;6.25;;;1.15;;
23565;SDS011;22140;48.988;8.544;2023-09-18T22:33:53;5.53;;;1.10;;
23565;SDS011;22140;48.988;8.544;2023-09-18T22:54:43;5.60;;;1.00;;
23565;SDS011;22140;48.988;8.544;2023-09-18T22:59:45;5.10;;;1.00;;
23565;SDS011;22140;48.988;8.544;2023-09-18T23:04:47;4.07;;;1.00;;
23565;SDS011;22140;48.988;8.544;2023-09-18T23:09:48;4.70;;;1.00;;
23565;SDS011;22140;48.988;8.544;2023-09-18T23:14:49;6.18;;;1.25;;
23565;SDS011;22140;48.988;8.544;2023-09-18T23:19:52;5.68;;;1.10;;
23565;SDS011;22140;48.988;8.544;2023-09-18T23:24:53;6.97;;;1.10;;
23565;SDS011;22140;48.988;8.544;2023-09-18T23:29:58;5.22;;;1.05;;
23565;SDS011;22140;48.988;8.544;2023-09-18T23:34:59;4.70;;;1.20;;
23565;SDS011;22140;48.988;8.544;2023-09-18T23:40:01;4.33;;;0.90;;
23565;SDS011;22140;48.988;8.544;2023-09-18T23:45:07;4.20;;;1.03;;
23565;SDS011;22140;48.988;8.544;2023-09-18T23:50:16;4.80;;;0.90;;
23565;SDS011;22140;48.988;8.544;2023-09-18T23:55:17;4.35;;;1.20;;
